Time;durP1;ratioP1;P1;durP2;ratioP2;P2;SDS_P1;SDS_P2;PMS_P1;PMS_P2;Temp;Humidity;BMP_temperature;BMP_pressure;BME280_temperature;BME280_humidity;BME280_pressure;Samples;Min_cycle;Max_cycle;Signal;HPM_P1;HPM_P2
2021/01/20 00:00:01;;;;;;;7.53;4.68;;;;;;;;;;5047713;28;20036;-50
2021/01/20 00:02:27;;;;;;;5.72;3.75;;;;;;;;;;5047615;28;20086;-50
2021/01/20 00:04:53;;;;;;;7.25;4.32;;;;;;;;;;5047333;28;20544;-56
2021/01/20 00:07:19;;;;;;;7.22;4.28;;;;;;;;;;5047907;28;20032;-53
2021/01/20 00:09:45;;;;;;;7.75;4.63;;;;;;;;;;5047367;28;20512;-52
2021/01/20 00:12:11;;;;;;;6.22;4.25;;;;;;;;;;5047194;28;20418;-54
2021/01/20 00:14:37;;;;;;;6.78;4.10;;;;;;;;;;5047893;28;20580;-54
2021/01/20 00:17:03;;;;;;;7.15;4.50;;;;;;;;;;5041727;28;20425;-51
2021/01/20 00:19:29;;;;;;;7.70;4.63;;;;;;;;;;5040378;28;20033;-50
2021/01/20 00:21:55;;;;;;;7.47;4.68;;;;;;;;;;5047411;28;20467;-52
2021/01/20 00:24:21;;;;;;;6.88;4.40;;;;;;;;;;5049114;28;20021;-53
2021/01/20 00:26:46;;;;;;;8.02;4.63;;;;;;;;;;5051361;28;20037;-48
2021/01/20 00:29:12;;;;;;;8.93;4.72;;;;;;;;;;5051820;28;20033;-52
2021/01/20 00:31:38;;;;;;;10.93;5.30;;;;;;;;;;5050900;28;20043;-55
2021/01/20 00:34:04;;;;;;;7.43;4.80;;;;;;;;;;5060053;28;20029;-54
2021/01/20 00:36:30;;;;;;;6.80;4.47;;;;;;;;;;5053148;28;20052;-50
2021/01/20 00:38:56;;;;;;;8.68;4.47;;;;;;;;;;5051517;28;20514;-49
2021/01/20 00:41:22;;;;;;;8.05;4.88;;;;;;;;;;5050835;28;20024;-48
2021/01/20 00:43:48;;;;;;;8.07;4.45;;;;;;;;;;5051384;28;20091;-49
2021/01/20 00:46:14;;;;;;;10.32;5.22;;;;;;;;;;5051657;28;20032;-50
2021/01/20 00:48:40;;;;;;;8.32;5.38;;;;;;;;;;5035895;28;20032;-48
2021/01/20 00:51:06;;;;;;;9.00;5.20;;;;;;;;;;5050709;28;20078;-51
2021/01/20 00:53:32;;;;;;;9.50;5.22;;;;;;;;;;5051049;28;20472;-55
2021/01/20 00:55:58;;;;;;;8.35;4.78;;;;;;;;;;5051122;28;20711;-52
2021/01/20 00:58:24;;;;;;;7.88;5.03;;;;;;;;;;5050659;28;20036;-52
2021/01/20 01:00:50;;;;;;;7.30;4.72;;;;;;;;;;5051013;28;20095;-53
2021/01/20 01:03:16;;;;;;;9.93;5.85;;;;;;;;;;5051040;28;20238;-49
2021/01/20 01:05:43;;;;;;;10.52;5.57;;;;;;;;;;5050820;28;20476;-49
2021/01/20 01:08:09;;;;;;;9.00;5.55;;;;;;;;;;5051152;28;20075;-49
2021/01/20 01:10:35;;;;;;;9.05;5.95;;;;;;;;;;5050502;28;20028;-49
2021/01/20 01:13:00;;;;;;;8.98;5.88;;;;;;;;;;5050610;28;20506;-52
2021/01/20 01:15:27;;;;;;;8.13;5.65;;;;;;;;;;5048698;28;20504;-53
2021/01/20 01:17:53;;;;;;;9.55;5.32;;;;;;;;;;5031039;28;20023;-51
2021/01/20 01:20:19;;;;;;;7.43;5.22;;;;;;;;;;5039777;28;20032;-54
2021/01/20 01:22:45;;;;;;;8.07;5.15;;;;;;;;;;5050945;28;20064;-52
2021/01/20 01:25:11;;;;;;;9.18;5.70;;;;;;;;;;5049358;28;20028;-56
2021/01/20 01:27:37;;;;;;;8.70;5.82;;;;;;;;;;5050484;28;20512;-53
2021/01/20 01:30:04;;;;;;;7.43;5.05;;;;;;;;;;5050866;28;20025;-50
2021/01/20 01:32:30;;;;;;;10.07;5.78;;;;;;;;;;5050190;28;20037;-54
2021/01/20 01:34:56;;;;;;;10.45;5.68;;;;;;;;;;5055915;28;20078;-54
2021/01/20 01:37:22;;;;;;;10.38;5.43;;;;;;;;;;5049567;28;20051;-53
2021/01/20 01:39:47;;;;;;;8.32;5.65;;;;;;;;;;5050356;28;20389;-55
2021/01/20 01:42:13;;;;;;;9.57;5.85;;;;;;;;;;5050130;28;20468;-56
2021/01/20 01:44:40;;;;;;;8.38;5.97;;;;;;;;;;5050084;28;20377;-48
2021/01/20 01:47:06;;;;;;;9.75;6.32;;;;;;;;;;5043977;28;20022;-49
2021/01/20 01:49:32;;;;;;;8.80;6.50;;;;;;;;;;5030390;28;20080;-54
2021/01/20 01:52:00;;;;;;;9.38;6.40;;;;;;;;;;5031287;28;20029;-50
2021/01/20 01:54:26;;;;;;;9.57;6.70;;;;;;;;;;5050181;28;20021;-53
2021/01/20 01:56:53;;;;;;;11.25;6.10;;;;;;;;;;5049787;28;20040;-50
2021/01/20 01:59:19;;;;;;;9.73;6.55;;;;;;;;;;5049848;28;20518;-52
2021/01/20 02:01:46;;;;;;;10.40;7.20;;;;;;;;;;5049983;28;20029;-48
2021/01/20 02:04:12;;;;;;;10.88;6.32;;;;;;;;;;5049486;28;20488;-50
2021/01/20 02:06:37;;;;;;;10.30;7.07;;;;;;;;;;5049402;28;20118;-51
2021/01/20 02:09:04;;;;;;;10.90;7.07;;;;;;;;;;5048770;28;20029;-55
2021/01/20 02:11:38;;;;;;;9.73;6.82;;;;;;;;;;5049481;28;20423;-49
2021/01/20 02:14:04;;;;;;;11.60;6.82;;;;;;;;;;5049564;28;20029;-55
2021/01/20 02:16:30;;;;;;;9.75;7.07;;;;;;;;;;5047390;28;20025;-52
2021/01/20 02:18:58;;;;;;;9.30;7.10;;;;;;;;;;5039503;28;20032;-52
2021/01/20 02:21:33;;;;;;;10.68;6.43;;;;;;;;;;5049930;28;20017;-51
2021/01/20 02:24:00;;;;;;;10.95;6.82;;;;;;;;;;5049501;28;20025;-50
2021/01/20 02:26:37;;;;;;;11.05;7.28;;;;;;;;;;5049287;28;20074;-52
2021/01/20 02:29:18;;;;;;;10.00;7.05;;;;;;;;;;5049489;28;20033;-51
2021/01/20 02:31:44;;;;;;;10.20;6.78;;;;;;;;;;5049626;28;20064;-52
2021/01/20 02:34:12;;;;;;;10.48;6.68;;;;;;;;;;5054652;28;20048;-56
2021/01/20 02:36:39;;;;;;;12.50;6.60;;;;;;;;;;5048638;28;20082;-56
2021/01/20 02:39:05;;;;;;;9.93;7.32;;;;;;;;;;5049675;28;20037;-55
2021/01/20 02:41:31;;;;;;;9.75;6.82;;;;;;;;;;5049502;28;20021;-52
2021/01/20 02:44:01;;;;;;;12.27;7.15;;;;;;;;;;5048647;28;20048;-55
2021/01/20 02:46:27;;;;;;;10.13;6.90;;;;;;;;;;5048161;28;20025;-53
2021/01/20 02:48:53;;;;;;;13.57;7.70;;;;;;;;;;5029361;28;20079;-51
2021/01/20 02:51:38;;;;;;;12.20;7.40;;;;;;;;;;5028955;28;20037;-53
2021/01/20 02:54:04;;;;;;;10.10;7.40;;;;;;;;;;5041996;28;20031;-53
2021/01/20 02:56:32;;;;;;;10.05;6.97;;;;;;;;;;5049082;28;20100;-52
2021/01/20 02:59:00;;;;;;;9.50;6.82;;;;;;;;;;5049386;28;20052;-51
2021/01/20 03:01:28;;;;;;;11.50;7.75;;;;;;;;;;5048629;28;20111;-53
2021/01/20 03:03:56;;;;;;;12.20;8.30;;;;;;;;;;5048554;28;20453;-54
2021/01/20 03:06:22;;;;;;;13.90;8.45;;;;;;;;;;5048404;28;20368;-49
2021/01/20 03:08:49;;;;;;;11.50;8.00;;;;;;;;;;5048801;28;20465;-55
2021/01/20 03:11:15;;;;;;;12.00;7.63;;;;;;;;;;5048671;28;20051;-50
2021/01/20 03:13:42;;;;;;;11.55;8.02;;;;;;;;;;5048477;28;20025;-52
2021/01/20 03:16:08;;;;;;;11.38;7.97;;;;;;;;;;5040722;28;20039;-52
2021/01/20 03:18:34;;;;;;;12.65;8.55;;;;;;;;;;5028806;28;20427;-56
2021/01/20 03:21:00;;;;;;;11.88;7.57;;;;;;;;;;5028540;28;20048;-54
2021/01/20 03:23:26;;;;;;;11.98;8.00;;;;;;;;;;5042128;28;20036;-53
2021/01/20 03:25:51;;;;;;;13.27;7.93;;;;;;;;;;5048252;28;20066;-56
2021/01/20 03:28:17;;;;;;;11.02;7.53;;;;;;;;;;5048256;28;20040;-54
2021/01/20 03:30:43;;;;;;;13.40;8.32;;;;;;;;;;5047931;28;20029;-55
2021/01/20 03:33:09;;;;;;;10.73;7.55;;;;;;;;;;5048083;28;20086;-53
2021/01/20 03:35:35;;;;;;;10.85;7.55;;;;;;;;;;5047718;28;20096;-56
2021/01/20 03:38:02;;;;;;;10.88;7.07;;;;;;;;;;5048592;28;20044;-55
2021/01/20 03:40:28;;;;;;;12.23;7.10;;;;;;;;;;5048307;28;20357;-51
2021/01/20 03:42:54;;;;;;;13.88;7.18;;;;;;;;;;5047951;28;20056;-52
2021/01/20 03:45:20;;;;;;;15.20;7.47;;;;;;;;;;5048007;28;20033;-51
2021/01/20 03:47:46;;;;;;;14.80;6.90;;;;;;;;;;5046688;28;20029;-53
2021/01/20 03:50:12;;;;;;;10.27;6.13;;;;;;;;;;5048323;28;20538;-56
2021/01/20 03:52:38;;;;;;;12.25;7.00;;;;;;;;;;5047713;28;20509;-53
2021/01/20 03:55:04;;;;;;;8.48;6.28;;;;;;;;;;5047936;28;20029;-49
2021/01/20 03:57:30;;;;;;;8.35;6.22;;;;;;;;;;5048309;28;20028;-51
2021/01/20 03:59:56;;;;;;;9.80;6.13;;;;;;;;;;5047901;28;20039;-55
2021/01/20 04:02:22;;;;;;;11.55;6.38;;;;;;;;;;5047266;28;20021;-55
2021/01/20 04:04:48;;;;;;;8.95;5.95;;;;;;;;;;5047867;28;20056;-54
2021/01/20 04:07:14;;;;;;;8.85;5.82;;;;;;;;;;5047429;28;20107;-54
2021/01/20 04:09:40;;;;;;;9.38;5.53;;;;;;;;;;5048045;28;20044;-53
2021/01/20 04:12:07;;;;;;;11.13;5.35;;;;;;;;;;5047550;28;20024;-56
2021/01/20 04:14:33;;;;;;;9.85;6.45;;;;;;;;;;5048020;28;20108;-52
2021/01/20 04:16:59;;;;;;;10.40;5.72;;;;;;;;;;5046056;28;20025;-56
2021/01/20 04:19:24;;;;;;;7.72;5.22;;;;;;;;;;5047932;28;20248;-51
2021/01/20 04:21:51;;;;;;;7.88;4.95;;;;;;;;;;5046903;28;20040;-53
2021/01/20 04:24:17;;;;;;;10.45;5.28;;;;;;;;;;5047738;28;20036;-50
2021/01/20 04:26:43;;;;;;;10.48;5.20;;;;;;;;;;5047892;28;20082;-55
2021/01/20 04:29:11;;;;;;;8.20;5.25;;;;;;;;;;5047880;28;20029;-54
2021/01/20 04:31:37;;;;;;;7.80;4.90;;;;;;;;;;5047587;28;20062;-54
2021/01/20 04:34:03;;;;;;;8.73;5.70;;;;;;;;;;5047459;28;20029;-55
2021/01/20 04:36:29;;;;;;;8.57;4.70;;;;;;;;;;5047694;28;20191;-53
2021/01/20 04:38:55;;;;;;;12.30;5.68;;;;;;;;;;5047757;28;20025;-54
2021/01/20 04:41:21;;;;;;;6.93;4.25;;;;;;;;;;5047552;28;20033;-54
2021/01/20 04:43:47;;;;;;;9.60;4.60;;;;;;;;;;5047701;28;20025;-53
2021/01/20 04:46:13;;;;;;;6.50;4.30;;;;;;;;;;5047733;28;20033;-50
2021/01/20 04:48:39;;;;;;;7.60;4.20;;;;;;;;;;5035222;28;20060;-51
2021/01/20 04:51:06;;;;;;;8.07;4.95;;;;;;;;;;5047096;28;20495;-51
2021/01/20 04:53:33;;;;;;;8.85;4.50;;;;;;;;;;5047663;28;20059;-54
2021/01/20 04:56:12;;;;;;;7.90;3.67;;;;;;;;;;5047697;28;20021;-55
2021/01/20 04:58:37;;;;;;;7.60;4.18;;;;;;;;;;5047474;28;20104;-55
2021/01/20 05:01:03;;;;;;;6.25;3.65;;;;;;;;;;5046859;28;20117;-51
2021/01/20 05:03:30;;;;;;;7.05;3.60;;;;;;;;;;5046830;28;20123;-56
2021/01/20 05:05:56;;;;;;;7.38;3.95;;;;;;;;;;5046886;28;20029;-55
2021/01/20 05:08:22;;;;;;;9.35;3.50;;;;;;;;;;5047317;28;20037;-54
2021/01/20 05:10:49;;;;;;;6.93;3.97;;;;;;;;;;5047986;28;20029;-54
2021/01/20 05:13:29;;;;;;;7.97;3.70;;;;;;;;;;5049976;28;20389;-54
2021/01/20 05:15:55;;;;;;;7.05;3.70;;;;;;;;;;5044329;28;20029;-53
2021/01/20 05:18:21;;;;;;;12.85;3.53;;;;;;;;;;5034347;28;20056;-56
2021/01/20 05:20:48;;;;;;;5.35;3.00;;;;;;;;;;5050335;28;20025;-52
2021/01/20 05:23:14;;;;;;;7.75;3.22;;;;;;;;;;5050399;28;20036;-54
2021/01/20 05:25:41;;;;;;;9.55;3.33;;;;;;;;;;5050817;28;20574;-54
2021/01/20 05:28:23;;;;;;;7.50;3.40;;;;;;;;;;5050545;28;20052;-54
2021/01/20 05:30:53;;;;;;;8.00;3.05;;;;;;;;;;5050487;28;20104;-52
2021/01/20 05:33:20;;;;;;;5.00;3.30;;;;;;;;;;5050934;28;20071;-54
2021/01/20 05:36:02;;;;;;;9.18;3.15;;;;;;;;;;5050203;28;20111;-55
2021/01/20 05:38:34;;;;;;;5.45;3.63;;;;;;;;;;5050524;28;20032;-56
2021/01/20 05:41:19;;;;;;;3.28;2.05;;;;;;;;;;5050291;28;20033;-53
2021/01/20 05:43:45;;;;;;;6.72;2.83;;;;;;;;;;5050605;28;20116;-55
2021/01/20 05:46:11;;;;;;;7.45;2.80;;;;;;;;;;5050541;28;20036;-52
2021/01/20 05:48:48;;;;;;;4.03;2.83;;;;;;;;;;5031403;28;20045;-53
2021/01/20 05:51:14;;;;;;;5.00;2.28;;;;;;;;;;5046169;28;20029;-54
2021/01/20 05:53:53;;;;;;;4.93;3.33;;;;;;;;;;5049289;28;20368;-54
2021/01/20 05:56:26;;;;;;;4.60;2.65;;;;;;;;;;5050333;28;20473;-53
2021/01/20 05:58:52;;;;;;;5.25;3.00;;;;;;;;;;5047970;28;20064;-54
2021/01/20 06:01:19;;;;;;;7.40;3.03;;;;;;;;;;5049518;28;20033;-52
2021/01/20 06:03:45;;;;;;;5.97;3.05;;;;;;;;;;5049312;28;20370;-55
2021/01/20 06:06:12;;;;;;;6.93;3.40;;;;;;;;;;5049252;28;20025;-55
2021/01/20 06:08:39;;;;;;;7.82;2.67;;;;;;;;;;5049989;28;20049;-54
2021/01/20 06:11:05;;;;;;;5.18;3.08;;;;;;;;;;5049598;28;20388;-55
2021/01/20 06:13:31;;;;;;;7.93;3.17;;;;;;;;;;5049243;28;20086;-52
2021/01/20 06:16:05;;;;;;;6.22;2.47;;;;;;;;;;5045854;28;20119;-55
2021/01/20 06:18:36;;;;;;;7.63;3.35;;;;;;;;;;5044561;28;20061;-53
2021/01/20 06:21:02;;;;;;;4.38;2.75;;;;;;;;;;5048694;28;20159;-50
2021/01/20 06:23:30;;;;;;;5.43;2.92;;;;;;;;;;5049470;28;20029;-54
2021/01/20 06:26:00;;;;;;;11.07;3.35;;;;;;;;;;5049436;28;20033;-52
2021/01/20 06:28:26;;;;;;;5.65;3.05;;;;;;;;;;5048313;28;20044;-52
2021/01/20 06:30:53;;;;;;;5.93;2.70;;;;;;;;;;5049489;28;20029;-54
2021/01/20 06:33:20;;;;;;;4.70;2.67;;;;;;;;;;5050345;28;20039;-49
2021/01/20 06:35:50;;;;;;;4.95;2.92;;;;;;;;;;5047211;28;20083;-51
2021/01/20 06:38:28;;;;;;;5.63;2.60;;;;;;;;;;5044511;28;20025;-54
2021/01/20 06:40:57;;;;;;;6.53;2.75;;;;;;;;;;5045293;28;20033;-55
2021/01/20 06:43:36;;;;;;;4.10;2.53;;;;;;;;;;5048684;28;20037;-52
2021/01/20 06:46:12;;;;;;;6.22;2.95;;;;;;;;;;5048371;28;20068;-52
2021/01/20 06:48:56;;;;;;;4.38;2.97;;;;;;;;;;5047957;28;20159;-54
2021/01/20 06:51:23;;;;;;;6.78;2.83;;;;;;;;;;5051089;28;20021;-51
2021/01/20 06:54:01;;;;;;;7.50;2.67;;;;;;;;;;5048422;28;20029;-52
2021/01/20 06:56:30;;;;;;;7.55;3.00;;;;;;;;;;5052619;28;20161;-50
2021/01/20 06:59:16;;;;;;;6.47;3.10;;;;;;;;;;5048009;28;20032;-54
2021/01/20 07:01:42;;;;;;;4.35;2.85;;;;;;;;;;5040047;28;20102;-51
2021/01/20 07:04:07;;;;;;;8.63;2.65;;;;;;;;;;5048941;28;20057;-54
2021/01/20 07:06:38;;;;;;;6.55;4.22;;;;;;;;;;5048224;28;20028;-55
2021/01/20 07:09:05;;;;;;;7.43;3.10;;;;;;;;;;5046350;28;20037;-53
2021/01/20 07:11:32;;;;;;;4.35;2.75;;;;;;;;;;5047563;28;20035;-50
2021/01/20 07:13:58;;;;;;;4.63;2.95;;;;;;;;;;5045641;28;20032;-55
2021/01/20 07:16:24;;;;;;;4.63;2.67;;;;;;;;;;5044440;28;20029;-55
2021/01/20 07:18:50;;;;;;;5.20;2.72;;;;;;;;;;5040226;28;20037;-54
2021/01/20 07:21:17;;;;;;;4.97;2.67;;;;;;;;;;5038548;28;20033;-53
2021/01/20 07:23:43;;;;;;;3.95;2.70;;;;;;;;;;5043864;28;20025;-50
2021/01/20 07:26:10;;;;;;;5.88;2.65;;;;;;;;;;5047090;28;20039;-56
2021/01/20 07:28:37;;;;;;;6.20;2.55;;;;;;;;;;5035939;28;22815;-51
2021/01/20 07:31:06;;;;;;;6.18;2.67;;;;;;;;;;5040256;28;20029;-51
2021/01/20 07:33:32;;;;;;;3.85;2.13;;;;;;;;;;5041135;28;20387;-54
2021/01/20 07:36:08;;;;;;;5.43;2.20;;;;;;;;;;5046095;28;20395;-51
2021/01/20 07:38:34;;;;;;;3.78;2.03;;;;;;;;;;5045040;28;20033;-55
2021/01/20 07:41:12;;;;;;;5.03;2.25;;;;;;;;;;5037914;28;20083;-53
2021/01/20 07:43:38;;;;;;;4.05;2.45;;;;;;;;;;5043030;28;20039;-53
2021/01/20 07:46:12;;;;;;;4.47;2.20;;;;;;;;;;5047010;28;20399;-52
2021/01/20 07:48:38;;;;;;;4.85;2.40;;;;;;;;;;5040777;28;20493;-52
2021/01/20 07:51:04;;;;;;;6.63;2.67;;;;;;;;;;5045350;28;20025;-53
2021/01/20 07:53:30;;;;;;;4.32;2.20;;;;;;;;;;5044838;28;20051;-51
2021/01/20 07:55:56;;;;;;;4.95;2.38;;;;;;;;;;5047009;28;20753;-50
2021/01/20 07:58:26;;;;;;;3.60;2.33;;;;;;;;;;5041717;28;20033;-53
2021/01/20 08:00:52;;;;;;;5.35;2.10;;;;;;;;;;5046853;28;20029;-49
2021/01/20 08:03:29;;;;;;;2.92;2.08;;;;;;;;;;5046877;28;20056;-50
2021/01/20 08:05:56;;;;;;;4.22;2.15;;;;;;;;;;5036153;28;20091;-51
2021/01/20 08:08:21;;;;;;;5.63;2.33;;;;;;;;;;5045804;28;20142;-54
2021/01/20 08:10:47;;;;;;;3.85;2.15;;;;;;;;;;5032829;28;20484;-49
2021/01/20 08:13:15;;;;;;;5.88;2.20;;;;;;;;;;5046012;28;20025;-55
2021/01/20 08:15:42;;;;;;;5.28;2.60;;;;;;;;;;5045287;28;20527;-55
2021/01/20 08:18:10;;;;;;;3.17;2.35;;;;;;;;;;5045298;28;20392;-50
2021/01/20 08:20:37;;;;;;;5.65;2.30;;;;;;;;;;5043084;28;20460;-53
2021/01/20 08:23:04;;;;;;;4.10;2.28;;;;;;;;;;5043381;28;20460;-56
2021/01/20 08:25:30;;;;;;;5.93;2.38;;;;;;;;;;5046086;28;22044;-50
2021/01/20 08:27:56;;;;;;;5.07;2.45;;;;;;;;;;5046078;28;20033;-51
2021/01/20 08:30:29;;;;;;;5.45;2.00;;;;;;;;;;5040457;28;20029;-51
2021/01/20 08:32:57;;;;;;;5.28;2.65;;;;;;;;;;5045959;28;20456;-48
2021/01/20 08:35:29;;;;;;;4.78;2.33;;;;;;;;;;5048325;28;20029;-52
2021/01/20 08:37:55;;;;;;;6.40;2.15;;;;;;;;;;5045839;28;20083;-52
2021/01/20 08:40:21;;;;;;;6.18;2.15;;;;;;;;;;5046465;28;20033;-52
2021/01/20 08:42:47;;;;;;;6.95;2.83;;;;;;;;;;5040557;28;20029;-51
2021/01/20 08:45:35;;;;;;;5.57;2.65;;;;;;;;;;5047764;28;20507;-52
2021/01/20 08:48:07;;;;;;;8.95;2.75;;;;;;;;;;5048088;28;20037;-55
2021/01/20 08:50:35;;;;;;;2.50;1.73;;;;;;;;;;5050489;28;20040;-54
2021/01/20 08:53:08;;;;;;;3.60;2.10;;;;;;;;;;5044372;28;20017;-54
2021/01/20 08:55:34;;;;;;;;;;;;;;;;;;5043126;28;20033;-53
2021/01/20 08:58:19;;;;;;;5.18;2.03;;;;;;;;;;5046245;28;19970;-52
2021/01/20 09:00:46;;;;;;;4.53;2.10;;;;;;;;;;5048262;28;20061;-53
2021/01/20 09:03:16;;;;;;;6.47;2.42;;;;;;;;;;5044652;28;20496;-49
2021/01/20 09:05:42;;;;;;;3.63;2.15;;;;;;;;;;5049396;28;20025;-50
2021/01/20 09:08:08;;;;;;;3.92;2.20;;;;;;;;;;5047939;28;20404;-56
2021/01/20 09:10:35;;;;;;;4.18;2.20;;;;;;;;;;5048510;28;20033;-50
2021/01/20 09:13:01;;;;;;;4.72;2.35;;;;;;;;;;5046136;28;20057;-54
2021/01/20 09:15:27;;;;;;;5.45;2.20;;;;;;;;;;5048644;28;20025;-54
2021/01/20 09:17:53;;;;;;;4.85;1.98;;;;;;;;;;5031930;28;20057;-52
2021/01/20 09:20:19;;;;;;;4.65;2.67;;;;;;;;;;5037528;28;20408;-55
2021/01/20 09:22:45;;;;;;;4.20;2.13;;;;;;;;;;5045694;28;20128;-54
2021/01/20 09:25:11;;;;;;;4.88;2.17;;;;;;;;;;5047380;28;20029;-54
2021/01/20 09:27:37;;;;;;;4.15;2.17;;;;;;;;;;5046816;28;20094;-52
2021/01/20 09:30:03;;;;;;;5.25;1.88;;;;;;;;;;5043199;28;20681;-52
2021/01/20 09:32:35;;;;;;;4.40;2.10;;;;;;;;;;5060538;28;20033;-54
2021/01/20 09:35:00;;;;;;;4.50;2.00;;;;;;;;;;5051072;28;20063;-54
2021/01/20 09:37:27;;;;;;;3.88;2.20;;;;;;;;;;5041620;28;20033;-51
2021/01/20 09:39:53;;;;;;;6.15;2.20;;;;;;;;;;5038299;28;20041;-50
2021/01/20 09:42:19;;;;;;;4.93;2.17;;;;;;;;;;5049274;28;20044;-49
2021/01/20 09:44:45;;;;;;;3.25;1.95;;;;;;;;;;5050190;28;20028;-49
2021/01/20 09:47:11;;;;;;;3.30;1.67;;;;;;;;;;5048640;28;20021;-49
2021/01/20 09:49:37;;;;;;;3.97;1.75;;;;;;;;;;5047683;28;20254;-49
2021/01/20 09:52:03;;;;;;;3.88;2.00;;;;;;;;;;5048515;28;20028;-51
2021/01/20 09:54:29;;;;;;;4.07;1.95;;;;;;;;;;5049634;28;20035;-50
2021/01/20 09:56:55;;;;;;;4.35;1.83;;;;;;;;;;5059564;28;20043;-52
2021/01/20 09:59:21;;;;;;;3.92;2.00;;;;;;;;;;5067353;28;20025;-52
2021/01/20 10:01:47;;;;;;;3.53;1.65;;;;;;;;;;5041961;28;20029;-51
2021/01/20 10:04:13;;;;;;;5.32;1.98;;;;;;;;;;5047305;28;20554;-52
2021/01/20 10:06:39;;;;;;;3.92;2.20;;;;;;;;;;5043285;28;20021;-50
2021/01/20 10:09:05;;;;;;;4.32;1.70;;;;;;;;;;5048400;28;20029;-53
2021/01/20 10:11:31;;;;;;;4.35;2.22;;;;;;;;;;5049626;28;20305;-49
2021/01/20 10:13:57;;;;;;;3.85;1.85;;;;;;;;;;5049381;28;20056;-50
2021/01/20 10:16:23;;;;;;;3.85;2.22;;;;;;;;;;5049317;28;20039;-51
2021/01/20 10:18:49;;;;;;;4.25;1.88;;;;;;;;;;5048611;28;20029;-54
2021/01/20 10:21:15;;;;;;;3.22;1.98;;;;;;;;;;5049719;28;20048;-49
2021/01/20 10:23:41;;;;;;;2.38;1.60;;;;;;;;;;5049577;28;20468;-51
2021/01/20 10:26:07;;;;;;;3.78;1.92;;;;;;;;;;5048947;28;20043;-53
2021/01/20 10:28:33;;;;;;;5.20;2.13;;;;;;;;;;5048605;28;20024;-54
2021/01/20 10:30:59;;;;;;;5.00;2.08;;;;;;;;;;5049209;28;20017;-52
2021/01/20 10:33:25;;;;;;;3.60;2.20;;;;;;;;;;5047545;28;20357;-54
2021/01/20 10:35:51;;;;;;;3.25;2.22;;;;;;;;;;5045215;28;20538;-53
2021/01/20 10:38:19;;;;;;;3.33;1.95;;;;;;;;;;5039042;28;20476;-52
2021/01/20 10:40:45;;;;;;;3.47;2.13;;;;;;;;;;5049197;28;20052;-51
2021/01/20 10:43:11;;;;;;;3.63;1.85;;;;;;;;;;5048810;28;20112;-53
2021/01/20 10:45:37;;;;;;;3.80;1.90;;;;;;;;;;5049100;28;20028;-51
2021/01/20 10:48:03;;;;;;;3.78;1.83;;;;;;;;;;5042511;28;20037;-51
2021/01/20 10:50:29;;;;;;;3.08;1.90;;;;;;;;;;5040137;28;20021;-53
2021/01/20 10:52:55;;;;;;;5.80;2.10;;;;;;;;;;5048619;28;20025;-51
2021/01/20 10:55:21;;;;;;;2.97;1.85;;;;;;;;;;5048959;28;20027;-51
2021/01/20 10:57:47;;;;;;;2.60;1.92;;;;;;;;;;5048681;28;20031;-52
2021/01/20 11:00:13;;;;;;;2.80;1.85;;;;;;;;;;5049152;28;20013;-53
2021/01/20 11:02:39;;;;;;;3.17;1.70;;;;;;;;;;5047558;28;20380;-54
2021/01/20 11:05:05;;;;;;;3.95;1.95;;;;;;;;;;5049132;28;20047;-51
2021/01/20 11:07:31;;;;;;;3.83;1.90;;;;;;;;;;5048417;28;20048;-51
2021/01/20 11:09:58;;;;;;;4.82;2.10;;;;;;;;;;5038683;28;20017;-53
2021/01/20 11:12:24;;;;;;;3.58;2.20;;;;;;;;;;5042527;28;20025;-53
2021/01/20 11:14:50;;;;;;;7.53;2.17;;;;;;;;;;5048319;28;20028;-53
2021/01/20 11:17:16;;;;;;;2.40;1.50;;;;;;;;;;5038658;28;20032;-52
2021/01/20 11:19:42;;;;;;;2.30;1.63;;;;;;;;;;5048213;28;20099;-49
2021/01/20 11:22:09;;;;;;;2.50;1.40;;;;;;;;;;5048409;28;20044;-49
2021/01/20 11:24:35;;;;;;;4.25;1.70;;;;;;;;;;5048233;28;20113;-54
2021/01/20 11:27:01;;;;;;;4.88;1.70;;;;;;;;;;5045451;28;20029;-53
2021/01/20 11:29:27;;;;;;;3.63;1.73;;;;;;;;;;5048299;28;20230;-54
2021/01/20 11:31:53;;;;;;;2.55;1.73;;;;;;;;;;5047533;28;20028;-53
2021/01/20 11:34:19;;;;;;;3.80;1.80;;;;;;;;;;5049088;28;20025;-52
2021/01/20 11:36:45;;;;;;;4.05;1.75;;;;;;;;;;5048433;28;20021;-54
2021/01/20 11:39:11;;;;;;;3.15;1.83;;;;;;;;;;5046516;28;20025;-53
2021/01/20 11:41:37;;;;;;;5.63;1.80;;;;;;;;;;5047176;28;20028;-54
2021/01/20 11:44:03;;;;;;;2.03;1.35;;;;;;;;;;5046621;28;20021;-52
2021/01/20 11:46:30;;;;;;;3.00;1.60;;;;;;;;;;5046478;28;20124;-55
2021/01/20 11:48:56;;;;;;;2.40;1.42;;;;;;;;;;5044626;28;20114;-53
2021/01/20 11:51:22;;;;;;;3.35;1.42;;;;;;;;;;5044386;28;20069;-50
2021/01/20 11:53:48;;;;;;;3.20;2.10;;;;;;;;;;5045161;28;20040;-55
2021/01/20 11:56:14;;;;;;;2.13;1.60;;;;;;;;;;5044959;28;20024;-52
2021/01/20 11:58:40;;;;;;;2.85;1.65;;;;;;;;;;5034275;28;20029;-52
2021/01/20 12:01:06;;;;;;;2.83;1.42;;;;;;;;;;5042510;28;20021;-53
2021/01/20 12:03:34;;;;;;;2.40;1.40;;;;;;;;;;5046775;28;20044;-52
2021/01/20 12:06:00;;;;;;;2.42;1.38;;;;;;;;;;5045995;28;20037;-54
2021/01/20 12:08:26;;;;;;;6.40;1.67;;;;;;;;;;5045333;28;20063;-52
2021/01/20 12:10:52;;;;;;;4.60;1.80;;;;;;;;;;5042829;28;20032;-51
2021/01/20 12:13:21;;;;;;;2.65;1.80;;;;;;;;;;5046400;28;20390;-54
2021/01/20 12:15:49;;;;;;;2.42;1.48;;;;;;;;;;5046317;28;20021;-49
2021/01/20 12:18:15;;;;;;;2.00;1.10;;;;;;;;;;5046616;28;20053;-51
2021/01/20 12:20:41;;;;;;;3.13;1.50;;;;;;;;;;5046104;28;20155;-50
2021/01/20 12:23:07;;;;;;;2.13;1.40;;;;;;;;;;5045997;28;20289;-54
2021/01/20 12:25:33;;;;;;;1.77;1.33;;;;;;;;;;5044481;28;20047;-55
2021/01/20 12:27:59;;;;;;;3.05;1.27;;;;;;;;;;5050014;28;20032;-51
2021/01/20 12:30:25;;;;;;;3.03;1.48;;;;;;;;;;5046653;28;20083;-49
2021/01/20 12:32:51;;;;;;;2.80;1.55;;;;;;;;;;5047343;28;20025;-49
2021/01/20 12:35:17;;;;;;;3.13;1.60;;;;;;;;;;5051384;28;20421;-54
2021/01/20 12:37:43;;;;;;;4.50;1.80;;;;;;;;;;5049804;28;20068;-51
2021/01/20 12:40:09;;;;;;;2.78;1.38;;;;;;;;;;5050079;28;20037;-51
2021/01/20 12:42:35;;;;;;;4.70;1.33;;;;;;;;;;5050574;28;20048;-52
2021/01/20 12:45:01;;;;;;;1.38;1.10;;;;;;;;;;5046811;28;20507;-51
2021/01/20 12:47:27;;;;;;;3.03;1.67;;;;;;;;;;5046796;28;20449;-50
2021/01/20 12:49:53;;;;;;;2.28;1.50;;;;;;;;;;5049141;28;20029;-49
2021/01/20 12:52:19;;;;;;;4.35;1.85;;;;;;;;;;5048005;28;20029;-54
2021/01/20 12:54:45;;;;;;;1.70;1.40;;;;;;;;;;5047541;28;20032;-51
2021/01/20 12:57:11;;;;;;;2.03;1.23;;;;;;;;;;5043233;28;20775;-52
2021/01/20 12:59:37;;;;;;;2.40;1.15;;;;;;;;;;5042282;28;20025;-53
2021/01/20 13:02:03;;;;;;;2.60;1.30;;;;;;;;;;5048245;28;20491;-55
2021/01/20 13:04:30;;;;;;;2.72;1.30;;;;;;;;;;5046723;28;20033;-49
2021/01/20 13:06:55;;;;;;;2.72;1.20;;;;;;;;;;5043808;28;20068;-48
2021/01/20 13:09:21;;;;;;;1.85;1.13;;;;;;;;;;5050809;28;20064;-52
2021/01/20 13:11:47;;;;;;;1.85;1.08;;;;;;;;;;5052080;28;20183;-51
2021/01/20 13:14:13;;;;;;;5.20;1.60;;;;;;;;;;5047135;28;20021;-52
2021/01/20 13:16:43;;;;;;;3.03;1.25;;;;;;;;;;5055146;28;20029;-51
2021/01/20 13:19:09;;;;;;;2.20;1.45;;;;;;;;;;5047049;28;20096;-55
2021/01/20 13:21:34;;;;;;;3.42;1.20;;;;;;;;;;5049639;28;20047;-50
2021/01/20 13:24:00;;;;;;;2.20;1.30;;;;;;;;;;5046533;28;20033;-50
2021/01/20 13:26:26;;;;;;;2.88;1.67;;;;;;;;;;5046427;28;20583;-50
2021/01/20 13:28:52;;;;;;;2.28;1.30;;;;;;;;;;5046412;28;20064;-49
2021/01/20 13:31:18;;;;;;;3.70;1.60;;;;;;;;;;5039535;28;20504;-56
2021/01/20 13:33:44;;;;;;;2.33;1.35;;;;;;;;;;5048969;28;20025;-52
2021/01/20 13:36:11;;;;;;;1.75;1.02;;;;;;;;;;5048151;28;20460;-51
2021/01/20 13:38:37;;;;;;;6.10;1.58;;;;;;;;;;5047055;28;20055;-51
2021/01/20 13:41:03;;;;;;;3.17;1.58;;;;;;;;;;5047510;28;20029;-50
2021/01/20 13:43:29;;;;;;;2.78;1.45;;;;;;;;;;5050313;28;20090;-53
2021/01/20 13:45:55;;;;;;;2.15;1.45;;;;;;;;;;5043473;28;20034;-51
2021/01/20 13:48:21;;;;;;;3.38;1.38;;;;;;;;;;5043787;28;20033;-55
2021/01/20 13:50:47;;;;;;;3.03;1.42;;;;;;;;;;5045281;28;20017;-50
2021/01/20 13:53:13;;;;;;;4.30;1.67;;;;;;;;;;5042614;28;20361;-56
2021/01/20 13:55:40;;;;;;;4.60;1.17;;;;;;;;;;5044758;28;20035;-51
2021/01/20 13:58:05;;;;;;;2.13;1.30;;;;;;;;;;5050084;28;20029;-49
2021/01/20 14:00:31;;;;;;;2.53;1.40;;;;;;;;;;5038498;28;20063;-52
2021/01/20 14:02:58;;;;;;;2.85;1.45;;;;;;;;;;5043573;28;20033;-53
2021/01/20 14:05:24;;;;;;;4.03;1.38;;;;;;;;;;5041592;28;20029;-51
2021/01/20 14:07:50;;;;;;;3.47;1.50;;;;;;;;;;5046893;28;20033;-54
2021/01/20 14:10:16;;;;;;;3.38;1.67;;;;;;;;;;5038908;28;20033;-51
2021/01/20 14:12:42;;;;;;;2.42;1.23;;;;;;;;;;5048320;28;20029;-51
2021/01/20 14:15:08;;;;;;;5.18;1.95;;;;;;;;;;5047921;28;20025;-52
2021/01/20 14:17:34;;;;;;;4.82;1.85;;;;;;;;;;5044914;28;20115;-54
2021/01/20 14:20:06;;;;;;;3.40;1.45;;;;;;;;;;5049263;28;20029;-51
2021/01/20 14:22:32;;;;;;;4.40;1.38;;;;;;;;;;5043983;28;20113;-52
2021/01/20 14:24:59;;;;;;;3.83;1.50;;;;;;;;;;5048757;28;20166;-53
2021/01/20 14:27:26;;;;;;;3.63;1.88;;;;;;;;;;5047147;28;20036;-51
2021/01/20 14:29:52;;;;;;;2.67;1.30;;;;;;;;;;5047178;28;20047;-52
2021/01/20 14:32:18;;;;;;;2.00;1.25;;;;;;;;;;5047977;28;20631;-52
2021/01/20 14:34:44;;;;;;;4.60;1.35;;;;;;;;;;5052023;28;20507;-52
2021/01/20 14:37:10;;;;;;;3.80;1.52;;;;;;;;;;5049936;28;20025;-49
2021/01/20 14:39:36;;;;;;;2.55;1.60;;;;;;;;;;5045022;28;20369;-51